METAR Data
IDs: Format: Raw Decoded Include TAF

Data at: 1451 UTC 25 Jan 2020

METAR for:KFOD (Fort Dodge Rgnl, IA, US)
Text:KFOD 251356Z AUTO 30008KT 10SM OVC028 M02/M04 A3001 RMK AO2 SLP204 T10221039 FZRANO
Temperature: -2.2°C ( 28°F)
Dewpoint: -3.9°C ( 25°F) [RH = 88%]
Pressure (altimeter):30.01 inches Hg (1016.3 mb) [Sea level pressure: 1020.4 mb]
Winds:from the WNW (300 degrees) at 9 MPH (8 knots; 4.1 m/s)
Visibility:10 or more sm (16+ km)
Ceiling:2800 feet AGL
Clouds: overcast cloud deck at 2800 feet AGL
QC Flag:automated observation with no human augmentation